createdAt,value
2023-02-23T00:22:44.521Z,1000.5189999999999
2023-02-23T00:53:01.437Z,1000.4
2023-02-23T01:23:21.093Z,1000.3610000000001
2023-02-23T01:53:38.300Z,1000.4019999999999
2023-02-23T02:24:01.575Z,1000.216
2023-02-23T02:54:19.564Z,1000.066
2023-02-23T03:24:36.978Z,999.941
2023-02-23T03:54:54.745Z,1000.1439999999999
2023-02-23T04:25:11.676Z,1000.155
2023-02-23T04:55:31.137Z,1000.242
2023-02-23T05:25:49.163Z,1000.185
2023-02-23T05:56:07.755Z,1000.37
2023-02-23T06:26:25.449Z,1000.378
2023-02-23T06:56:42.421Z,1000.632
2023-02-23T07:27:05.845Z,1000.805
2023-02-23T07:57:24.980Z,1001.0210000000001
2023-02-23T08:27:43.467Z,1001.125
2023-02-23T08:58:05.920Z,1001.123
2023-02-23T09:28:30.233Z,1001.2489999999999
2023-02-23T09:58:54.282Z,1001.453
2023-02-23T10:29:12.305Z,1001.57
2023-02-23T10:59:27.841Z,1001.6110000000001
2023-02-23T11:29:44.824Z,1001.6139999999999
2023-02-23T12:00:01.427Z,1001.595
2023-02-23T12:30:21.429Z,1001.2819999999999
2023-02-23T13:00:43.998Z,1001.179
2023-02-23T13:31:02.948Z,1001.1460000000001
2023-02-23T14:01:22.161Z,1001.175
2023-02-23T14:31:40.856Z,1001.117
2023-02-23T15:01:56.449Z,1001.225
2023-02-23T15:32:12.037Z,1001.258
2023-02-23T16:02:27.649Z,1001.25
2023-02-23T16:32:44.285Z,1001.3660000000001
2023-02-23T17:03:00.271Z,1001.515
2023-02-23T17:33:17.201Z,1001.643
2023-02-23T18:03:33.322Z,1001.747
2023-02-23T18:33:56.309Z,1001.7
2023-02-23T19:04:13.449Z,1001.55
2023-02-23T19:34:33.776Z,1001.5419999999999
2023-02-23T20:04:51.960Z,1001.6560000000001
2023-02-23T20:35:09.525Z,1001.857
2023-02-23T21:05:26.421Z,1001.924
2023-02-23T21:35:44.035Z,1001.8910000000001
2023-02-23T22:06:01.162Z,1001.822
